Terminal Aerodrome Forecast
Issued by NWS Portland, OR

Home | Current Version | Previous Version | Text Only | Print | Product List | Glossary On
Versions: 1 2 3 4 5 6 7 8 9 10 11 12 13 14 15 16 17 18 19 20 21 22 23 24 25 26 27 28 29 30 31 32 33 34 35 36 37 38 39 40 41 42 43
000
FTUS46 KPQR 310614 AAA
TAFAST
TAF AMD
KAST 310614Z 3106/0106 00000KT 2SM BR FEW002
      TEMPO 3106/3108 1/2SM FG BKN002
     FM310800 00000KT 1/2SM FG BKN002
     FM311800 07004KT 4SM BR BKN004
     FM312000 08006KT P6SM SCT007=

USA.gov is the U.S. government's official web portal to all federal, state and local government web resources and services.